createdAt,value
2022-11-24T00:01:17.020Z,6.84
2022-11-24T00:03:46.598Z,6.52
2022-11-24T00:06:16.067Z,6.95
2022-11-24T00:08:45.482Z,7.00
2022-11-24T00:11:19.667Z,6.94
2022-11-24T00:13:47.959Z,6.99
2022-11-24T00:16:19.530Z,6.82
2022-11-24T00:18:49.373Z,6.91
2022-11-24T00:21:18.857Z,6.81
2022-11-24T00:23:47.225Z,7.11
2022-11-24T00:26:20.608Z,6.93
2022-11-24T00:28:51.491Z,6.93
2022-11-24T00:31:23.551Z,7.06
2022-11-24T00:33:55.106Z,7.00
2022-11-24T00:36:24.817Z,6.77
2022-11-24T00:38:58.325Z,6.47
2022-11-24T00:41:27.257Z,6.71
2022-11-24T00:43:56.159Z,6.59
2022-11-24T00:46:24.698Z,6.33
2022-11-24T00:48:54.109Z,6.45
2022-11-24T00:51:26.317Z,6.50
2022-11-24T00:53:55.799Z,6.69
2022-11-24T00:56:25.007Z,6.76
2022-11-24T00:58:53.369Z,6.39
2022-11-24T01:01:24.109Z,6.14
2022-11-24T01:03:53.321Z,6.44
2022-11-24T01:06:23.853Z,6.07
2022-11-24T01:08:52.898Z,6.35
2022-11-24T01:11:23.936Z,6.35
2022-11-24T01:13:55.131Z,6.48
2022-11-24T01:16:32.309Z,6.51
2022-11-24T01:19:01.319Z,6.61
2022-11-24T01:21:29.457Z,6.35
2022-11-24T01:23:58.060Z,6.36
2022-11-24T01:26:26.732Z,6.43
2022-11-24T01:28:55.971Z,6.79
2022-11-24T01:31:24.796Z,6.75
2022-11-24T01:33:53.547Z,6.39
2022-11-24T01:36:22.326Z,6.25
2022-11-24T01:38:50.404Z,6.63
2022-11-24T01:41:21.735Z,6.52
2022-11-24T01:43:50.628Z,6.43
2022-11-24T01:46:44.259Z,6.94
2022-11-24T01:49:18.338Z,6.80
2022-11-24T01:51:50.852Z,6.57
2022-11-24T01:54:28.080Z,6.52
2022-11-24T01:57:00.741Z,6.49
2022-11-24T01:59:29.240Z,6.74
2022-11-24T02:01:57.836Z,6.55
2022-11-24T02:04:28.479Z,6.50
2022-11-24T02:06:58.317Z,6.04
2022-11-24T02:09:49.396Z,6.69
2022-11-24T02:12:17.867Z,6.92
2022-11-24T02:14:46.177Z,6.52
2022-11-24T02:17:14.327Z,6.59
2022-11-24T02:19:58.128Z,6.30
2022-11-24T02:22:32.087Z,6.45
2022-11-24T02:25:10.717Z,5.89
2022-11-24T02:27:38.729Z,6.29
2022-11-24T02:30:07.621Z,6.37
2022-11-24T02:32:35.679Z,6.24
2022-11-24T02:35:06.166Z,6.06
2022-11-24T02:37:34.507Z,6.23
2022-11-24T02:40:02.480Z,5.98
2022-11-24T02:42:34.295Z,6.24
2022-11-24T02:45:02.808Z,6.22
2022-11-24T02:47:31.217Z,6.05
2022-11-24T02:49:59.348Z,6.04
2022-11-24T02:52:27.689Z,5.95
2022-11-24T02:54:55.717Z,5.88
2022-11-24T02:57:23.821Z,5.95
2022-11-24T02:59:52.290Z,6.04
2022-11-24T03:02:20.404Z,5.86
2022-11-24T03:04:48.486Z,5.83
2022-11-24T03:07:16.940Z,5.93
2022-11-24T03:09:44.975Z,5.95
2022-11-24T03:12:13.009Z,5.70
2022-11-24T03:14:41.403Z,5.81
2022-11-24T03:17:09.389Z,5.70
2022-11-24T03:19:37.399Z,5.91
2022-11-24T03:22:05.688Z,5.47
2022-11-24T03:24:33.923Z,5.49
2022-11-24T03:27:02.200Z,5.67
2022-11-24T03:29:30.488Z,5.67
2022-11-24T03:31:59.127Z,5.77
2022-11-24T03:34:27.138Z,5.63
2022-11-24T03:36:55.428Z,5.61
2022-11-24T03:39:23.408Z,5.63
2022-11-24T03:41:54.197Z,5.70
2022-11-24T03:44:22.735Z,5.77
2022-11-24T03:46:52.259Z,5.69
2022-11-24T03:49:20.298Z,5.59
2022-11-24T03:51:48.620Z,5.66
2022-11-24T03:54:16.548Z,5.88
2022-11-24T03:56:44.520Z,5.85
2022-11-24T03:59:12.885Z,5.96
2022-11-24T04:01:41.009Z,5.74
2022-11-24T04:04:11.447Z,5.80
2022-11-24T04:06:40.211Z,5.49
2022-11-24T04:09:08.628Z,5.25
2022-11-24T04:11:55.810Z,5.29
2022-11-24T04:14:23.809Z,5.47
2022-11-24T04:16:52.193Z,5.42
2022-11-24T04:19:20.172Z,5.51
2022-11-24T04:21:48.108Z,5.29
2022-11-24T04:24:16.514Z,5.70
2022-11-24T04:26:44.458Z,5.85
2022-11-24T04:29:12.582Z,5.48
2022-11-24T04:31:40.952Z,5.30
2022-11-24T04:34:08.899Z,5.62
2022-11-24T04:36:36.908Z,5.31
2022-11-24T04:39:24.036Z,5.59
2022-11-24T04:41:53.939Z,5.48
2022-11-24T04:44:22.408Z,5.57
2022-11-24T04:46:50.497Z,5.47
2022-11-24T04:49:18.780Z,5.42
2022-11-24T04:51:47.279Z,5.34
2022-11-24T04:54:15.931Z,5.30
2022-11-24T04:56:44.332Z,5.50
2022-11-24T04:59:14.918Z,5.24
2022-11-24T05:01:43.609Z,5.01
2022-11-24T05:04:13.125Z,5.08
2022-11-24T05:06:42.129Z,5.54
2022-11-24T05:09:15.140Z,5.43
2022-11-24T05:11:44.331Z,5.82
2022-11-24T05:14:12.250Z,5.63
2022-11-24T05:16:40.937Z,5.37
2022-11-24T05:19:09.354Z,5.27
2022-11-24T05:21:37.405Z,5.50
2022-11-24T05:24:05.623Z,5.57
2022-11-24T05:26:35.742Z,5.40
2022-11-24T05:29:03.754Z,5.19
2022-11-24T05:31:31.752Z,5.49
2022-11-24T05:34:00.097Z,5.53
2022-11-24T05:36:46.628Z,5.51
2022-11-24T05:39:15.012Z,5.16
2022-11-24T05:41:42.892Z,5.03
2022-11-24T05:44:10.842Z,5.11
2022-11-24T05:46:39.274Z,5.02
2022-11-24T05:49:07.319Z,5.07
2022-11-24T05:51:35.331Z,5.05
2022-11-24T05:54:03.793Z,5.05
2022-11-24T05:56:31.835Z,5.38
2022-11-24T05:58:59.850Z,5.09
2022-11-24T06:01:28.341Z,5.10
2022-11-24T06:03:56.899Z,5.30
2022-11-24T06:06:25.021Z,5.31
2022-11-24T06:08:53.013Z,5.15
2022-11-24T06:11:21.661Z,5.29
2022-11-24T06:13:49.852Z,5.17
2022-11-24T06:16:18.244Z,5.47
2022-11-24T06:18:46.632Z,5.28
2022-11-24T06:21:14.612Z,5.39
2022-11-24T06:23:42.630Z,5.49
2022-11-24T06:26:11.005Z,5.19
2022-11-24T06:28:39.096Z,5.40
2022-11-24T06:31:07.083Z,5.53
2022-11-24T06:33:36.722Z,5.53
2022-11-24T06:36:07.842Z,5.84
2022-11-24T06:38:36.975Z,5.78
2022-11-24T06:41:07.152Z,5.62
2022-11-24T06:43:35.831Z,5.61
2022-11-24T06:46:04.584Z,5.90
2022-11-24T06:48:33.122Z,5.43
2022-11-24T06:51:06.552Z,5.47
2022-11-24T06:53:39.102Z,5.24
2022-11-24T06:56:16.295Z,5.63
2022-11-24T06:58:46.345Z,5.37
2022-11-24T07:01:25.219Z,5.36
2022-11-24T07:03:54.290Z,5.58
2022-11-24T07:06:24.312Z,5.27
2022-11-24T07:08:52.914Z,5.50
2022-11-24T07:11:22.734Z,5.66
2022-11-24T07:13:59.669Z,5.37
2022-11-24T07:16:28.864Z,5.37
2022-11-24T07:18:58.303Z,5.28
2022-11-24T07:21:27.020Z,5.71
2022-11-24T07:23:56.814Z,5.65
2022-11-24T07:26:25.780Z,5.83
2022-11-24T07:28:53.863Z,5.86
2022-11-24T07:31:25.229Z,6.37
2022-11-24T07:33:54.734Z,6.27
2022-11-24T07:36:23.462Z,5.92
2022-11-24T07:38:51.601Z,6.40
2022-11-24T07:41:20.534Z,6.25
2022-11-24T07:43:49.128Z,6.35
2022-11-24T07:46:19.470Z,6.23
2022-11-24T07:48:47.896Z,6.31
2022-11-24T07:51:16.243Z,6.14
2022-11-24T07:53:44.903Z,6.13
2022-11-24T07:56:13.384Z,6.27
2022-11-24T07:58:41.283Z,6.22
2022-11-24T08:01:14.031Z,6.37
2022-11-24T08:03:42.989Z,6.40
2022-11-24T08:06:31.908Z,6.52
2022-11-24T08:09:00.100Z,6.73
2022-11-24T08:11:28.165Z,6.34
2022-11-24T08:13:56.013Z,6.49
2022-11-24T08:16:24.400Z,6.43
2022-11-24T08:18:54.442Z,6.39
2022-11-24T08:21:23.884Z,6.31
2022-11-24T08:23:58.320Z,6.37
2022-11-24T08:26:26.296Z,6.66
2022-11-24T08:28:56.973Z,6.82
2022-11-24T08:31:27.610Z,6.85
2022-11-24T08:33:56.578Z,6.88
2022-11-24T08:36:24.723Z,6.66
2022-11-24T08:38:56.803Z,6.61
2022-11-24T08:41:25.455Z,6.73
2022-11-24T08:43:54.428Z,6.69
2022-11-24T08:46:22.996Z,6.60
2022-11-24T08:48:54.741Z,6.75
2022-11-24T08:51:25.183Z,6.63
2022-11-24T08:53:58.573Z,6.89
2022-11-24T08:56:28.483Z,6.83
2022-11-24T08:58:57.291Z,6.51
2022-11-24T09:01:25.595Z,6.51
2022-11-24T09:03:53.951Z,6.41
2022-11-24T09:06:26.193Z,6.43
2022-11-24T09:08:55.885Z,6.40
2022-11-24T09:11:25.336Z,6.42
2022-11-24T09:13:54.003Z,6.36
2022-11-24T09:16:24.677Z,6.33
2022-11-24T09:19:01.575Z,6.22
2022-11-24T09:21:29.575Z,6.36
2022-11-24T09:23:58.075Z,6.40
2022-11-24T09:26:31.273Z,6.49
2022-11-24T09:29:00.774Z,6.51
2022-11-24T09:31:31.240Z,6.36
2022-11-24T09:33:59.744Z,6.61
2022-11-24T09:36:28.434Z,6.47
2022-11-24T09:38:56.382Z,6.40
2022-11-24T09:41:52.282Z,6.39
2022-11-24T09:44:42.034Z,6.35
2022-11-24T09:47:42.564Z,6.39
2022-11-24T09:50:26.311Z,6.34
2022-11-24T09:53:25.174Z,6.56
2022-11-24T09:56:03.945Z,6.79
2022-11-24T09:58:50.977Z,6.92
2022-11-24T10:01:29.915Z,7.01
2022-11-24T10:04:04.305Z,7.14
2022-11-24T10:07:23.564Z,6.98
2022-11-24T10:10:07.012Z,7.25
2022-11-24T10:13:13.124Z,7.16
2022-11-24T10:15:59.675Z,7.22
2022-11-24T10:18:42.578Z,7.26
2022-11-24T10:21:28.991Z,7.37
2022-11-24T10:24:35.507Z,7.45
2022-11-24T10:27:18.515Z,7.50
2022-11-24T10:29:50.305Z,7.77
2022-11-24T10:32:20.022Z,8.68
2022-11-24T10:34:51.674Z,9.55
2022-11-24T10:37:30.814Z,10.36
2022-11-24T10:43:11.955Z,10.17
2022-11-24T10:45:40.876Z,9.84
2022-11-24T10:48:24.404Z,9.90
2022-11-24T10:51:05.904Z,9.45
2022-11-24T10:53:35.364Z,8.93
2022-11-24T10:56:05.954Z,9.02
2022-11-24T10:58:38.816Z,9.17
2022-11-24T11:01:13.753Z,9.08
2022-11-24T11:03:48.349Z,8.99
2022-11-24T11:06:23.783Z,8.82
2022-11-24T11:09:07.453Z,8.88
2022-11-24T11:11:39.395Z,8.62
2022-11-24T11:14:10.415Z,8.58
2022-11-24T11:16:48.620Z,8.62
2022-11-24T11:19:52.376Z,8.72
2022-11-24T11:22:28.877Z,8.39
2022-11-24T11:25:05.673Z,8.62
2022-11-24T11:27:34.971Z,8.83
2022-11-24T11:36:11.187Z,8.69
2022-11-24T11:38:40.366Z,9.02
2022-11-24T11:41:19.103Z,8.94
2022-11-24T11:43:50.834Z,8.90
2022-11-24T11:46:18.775Z,8.85
2022-11-24T11:48:47.396Z,8.59
2022-11-24T11:51:34.112Z,8.67
2022-11-24T11:54:33.555Z,8.26
2022-11-24T11:57:15.547Z,8.52
2022-11-24T11:59:55.531Z,8.54
2022-11-24T12:02:26.794Z,8.33
2022-11-24T12:05:15.434Z,8.62
2022-11-24T12:08:04.904Z,8.36
2022-11-24T12:10:43.025Z,8.15
2022-11-24T12:13:27.612Z,8.49
2022-11-24T12:15:58.026Z,8.52
2022-11-24T12:19:03.393Z,8.61
2022-11-24T12:21:53.029Z,8.83
2022-11-24T12:24:23.734Z,8.70
2022-11-24T12:27:10.483Z,8.81
2022-11-24T12:29:45.288Z,8.68
2022-11-24T12:32:25.563Z,8.76
2022-11-24T12:34:56.574Z,8.77
2022-11-24T12:37:27.664Z,8.73
2022-11-24T12:40:10.706Z,9.03
2022-11-24T12:42:54.744Z,8.88
2022-11-24T12:45:32.675Z,9.33
2022-11-24T12:48:04.782Z,9.31
2022-11-24T12:50:38.219Z,8.88
2022-11-24T12:53:14.232Z,8.60
2022-11-24T12:55:42.973Z,8.89
2022-11-24T12:58:23.194Z,8.66
2022-11-24T13:01:32.952Z,8.68
2022-11-24T13:04:26.902Z,8.54
2022-11-24T13:07:04.633Z,8.44
2022-11-24T13:09:32.962Z,8.73
2022-11-24T13:12:14.331Z,8.27
2022-11-24T13:14:46.273Z,8.52
2022-11-24T13:17:52.391Z,8.27
2022-11-24T13:20:39.451Z,8.19
2022-11-24T13:23:23.416Z,8.16
2022-11-24T13:26:44.134Z,8.48
2022-11-24T13:29:36.315Z,8.20
2022-11-24T13:32:04.603Z,8.25
2022-11-24T13:34:43.040Z,8.29
2022-11-24T13:37:33.668Z,8.16
2022-11-24T13:40:13.669Z,8.38
2022-11-24T13:43:01.599Z,7.85
2022-11-24T13:45:42.076Z,8.21
2022-11-24T13:48:19.656Z,8.14
2022-11-24T13:50:50.996Z,8.08
2022-11-24T13:53:32.362Z,8.11
2022-11-24T13:56:03.844Z,8.40
2022-11-24T13:58:44.647Z,8.13
2022-11-24T14:01:22.686Z,8.28
2022-11-24T14:04:30.418Z,7.99
2022-11-24T14:07:09.401Z,8.29
2022-11-24T14:09:46.406Z,8.18
2022-11-24T14:12:14.220Z,8.09
2022-11-24T14:14:44.537Z,8.02
2022-11-24T14:17:16.576Z,7.91
2022-11-24T14:19:48.555Z,8.33
2022-11-24T14:22:31.583Z,8.13
2022-11-24T14:25:01.195Z,7.94
2022-11-24T14:27:36.392Z,7.93
2022-11-24T14:30:12.392Z,8.10
2022-11-24T14:32:40.985Z,7.95
2022-11-24T14:35:24.420Z,8.26
2022-11-24T14:37:52.657Z,7.92
2022-11-24T14:40:46.695Z,7.98
2022-11-24T14:43:30.366Z,8.14
2022-11-24T14:46:03.704Z,8.08
2022-11-24T14:48:37.784Z,8.14
2022-11-24T14:51:15.615Z,7.97
2022-11-24T14:53:47.114Z,7.68
2022-11-24T14:56:38.709Z,8.14
2022-11-24T14:59:24.583Z,8.06
2022-11-24T15:01:52.959Z,7.78
2022-11-24T15:04:54.816Z,7.81
2022-11-24T15:07:26.794Z,7.63
2022-11-24T15:10:00.970Z,7.53
2022-11-24T15:12:37.793Z,7.38
2022-11-24T15:15:05.734Z,7.29
2022-11-24T15:17:34.714Z,7.46
2022-11-24T15:20:11.332Z,7.23
2022-11-24T15:22:42.290Z,7.20
2022-11-24T15:25:30.363Z,7.03
2022-11-24T15:27:58.893Z,7.13
2022-11-24T15:30:27.346Z,6.95
2022-11-24T15:32:59.413Z,6.93
2022-11-24T15:35:32.150Z,7.01
2022-11-24T15:38:00.352Z,6.96
2022-11-24T15:40:28.624Z,6.83
2022-11-24T15:42:59.662Z,7.03
2022-11-24T15:45:34.568Z,7.15
2022-11-24T15:48:02.615Z,6.88
2022-11-24T15:50:30.451Z,6.58
2022-11-24T15:52:58.884Z,6.86
2022-11-24T15:55:26.803Z,6.98
2022-11-24T15:57:54.875Z,6.84
2022-11-24T16:00:24.114Z,6.73
2022-11-24T16:02:52.344Z,7.00
2022-11-24T16:05:22.141Z,6.90
2022-11-24T16:07:50.142Z,6.92
2022-11-24T16:10:27.354Z,6.85
2022-11-24T16:12:55.492Z,6.81
2022-11-24T16:15:23.924Z,7.05
2022-11-24T16:17:51.943Z,6.87
2022-11-24T16:20:20.224Z,6.76
2022-11-24T16:22:48.540Z,6.54
2022-11-24T16:25:16.958Z,6.16
2022-11-24T16:27:45.113Z,6.43
2022-11-24T16:30:14.088Z,6.20
2022-11-24T16:32:42.372Z,6.14
2022-11-24T16:35:10.463Z,6.41
2022-11-24T16:37:38.942Z,6.22
2022-11-24T16:40:08.889Z,6.28
2022-11-24T16:42:36.986Z,6.36
2022-11-24T16:45:05.942Z,5.78
2022-11-24T16:47:39.305Z,6.12
2022-11-24T16:50:09.234Z,5.72
2022-11-24T16:52:37.372Z,6.15
2022-11-24T16:55:10.003Z,6.06
2022-11-24T16:57:38.439Z,6.09
2022-11-24T17:00:06.893Z,6.31
2022-11-24T17:02:35.470Z,6.22
2022-11-24T17:05:04.002Z,5.85
2022-11-24T17:07:32.136Z,5.93
2022-11-24T17:10:00.807Z,6.14
2022-11-24T17:12:29.144Z,5.94
2022-11-24T17:15:24.327Z,5.93
2022-11-24T17:18:16.143Z,6.19
2022-11-24T17:20:36.913Z,6.14
2022-11-24T17:23:05.044Z,6.16
2022-11-24T17:25:33.363Z,6.20
2022-11-24T17:28:03.183Z,5.96
2022-11-24T17:30:31.413Z,6.17
2022-11-24T17:32:59.233Z,5.78
2022-11-24T17:35:27.083Z,5.60
2022-11-24T17:37:57.264Z,5.79
2022-11-24T17:40:29.484Z,5.87
2022-11-24T17:42:59.743Z,5.94
2022-11-24T17:45:29.198Z,5.93
2022-11-24T17:48:00.952Z,5.97
2022-11-24T17:50:28.982Z,5.99
2022-11-24T17:52:57.232Z,5.86
2022-11-24T17:55:25.132Z,5.86
2022-11-24T17:57:52.963Z,5.99
2022-11-24T18:00:22.054Z,5.84
2022-11-24T18:02:50.783Z,5.87
2022-11-24T18:05:18.704Z,5.75
2022-11-24T18:07:46.781Z,5.88
2022-11-24T18:10:15.842Z,5.84
2022-11-24T18:12:45.057Z,5.80
2022-11-24T18:15:13.247Z,5.73
2022-11-24T18:17:41.422Z,5.78
2022-11-24T18:20:09.583Z,6.06
2022-11-24T18:25:28.654Z,5.60
2022-11-24T18:27:56.539Z,5.59
2022-11-24T18:30:24.474Z,5.80
2022-11-24T18:32:52.663Z,5.79
2022-11-24T18:35:20.579Z,5.62
2022-11-24T18:37:51.023Z,5.59
2022-11-24T18:40:19.325Z,5.82
2022-11-24T18:42:47.324Z,5.66
2022-11-24T18:45:15.185Z,5.82
2022-11-24T18:47:43.604Z,6.06
2022-11-24T18:50:11.488Z,5.79
2022-11-24T18:52:39.273Z,5.60
2022-11-24T18:55:07.763Z,5.58
2022-11-24T18:57:35.600Z,5.77
2022-11-24T19:00:04.722Z,5.56
2022-11-24T19:02:33.783Z,5.67
2022-11-24T19:05:03.432Z,5.37
2022-11-24T19:07:31.361Z,5.41
2022-11-24T19:09:59.754Z,5.62
2022-11-24T19:12:27.757Z,5.19
2022-11-24T19:14:55.587Z,5.22
2022-11-24T19:17:23.795Z,5.47
2022-11-24T19:19:51.973Z,5.62
2022-11-24T19:22:19.834Z,5.54
2022-11-24T19:24:50.223Z,5.67
2022-11-24T19:27:21.020Z,5.51
2022-11-24T19:29:49.287Z,5.65
2022-11-24T19:32:20.583Z,5.41
2022-11-24T19:34:48.554Z,5.50
2022-11-24T19:37:17.440Z,5.00
2022-11-24T19:39:45.323Z,4.88
2022-11-24T19:42:14.614Z,5.51
2022-11-24T19:44:43.743Z,5.03
2022-11-24T19:47:13.203Z,5.06
2022-11-24T19:49:41.754Z,5.34
2022-11-24T19:52:11.333Z,5.57
2022-11-24T19:54:40.285Z,5.17
2022-11-24T19:57:08.980Z,5.44
2022-11-24T19:59:37.163Z,5.63
2022-11-24T20:02:05.169Z,5.29
2022-11-24T20:04:38.466Z,5.57
2022-11-24T20:07:06.384Z,5.69
2022-11-24T20:09:34.612Z,5.42
2022-11-24T20:12:02.744Z,5.44
2022-11-24T20:14:30.571Z,5.27
2022-11-24T20:16:58.793Z,5.47
2022-11-24T20:19:27.132Z,5.29
2022-11-24T20:21:55.003Z,5.25
2022-11-24T20:24:24.826Z,5.48
2022-11-24T20:26:56.424Z,5.42
2022-11-24T20:29:24.783Z,5.77
2022-11-24T20:31:54.653Z,5.43
2022-11-24T20:34:23.236Z,5.59
2022-11-24T20:36:53.140Z,5.48
2022-11-24T20:39:25.541Z,5.47
2022-11-24T20:41:54.784Z,5.52
2022-11-24T20:44:23.804Z,5.26
2022-11-24T20:46:59.440Z,5.00
2022-11-24T20:49:32.639Z,4.98
2022-11-24T20:52:01.033Z,5.08
2022-11-24T20:54:29.255Z,4.84
2022-11-24T20:56:57.089Z,4.96
2022-11-24T20:59:25.482Z,5.01
2022-11-24T21:01:55.628Z,5.17
2022-11-24T21:04:25.948Z,5.38
2022-11-24T21:06:54.835Z,4.52
2022-11-24T21:09:22.982Z,5.12
2022-11-24T21:11:50.867Z,4.85
2022-11-24T21:14:18.965Z,5.13
2022-11-24T21:16:46.965Z,5.00
2022-11-24T21:19:17.768Z,5.34
2022-11-24T21:21:47.780Z,5.67
2022-11-24T21:24:17.495Z,5.23
2022-11-24T21:26:48.005Z,5.39
2022-11-24T21:29:19.356Z,5.17
2022-11-24T21:31:47.570Z,5.37
2022-11-24T21:34:16.835Z,5.48
2022-11-24T21:36:45.350Z,5.22
2022-11-24T21:39:14.675Z,5.18
2022-11-24T21:41:43.401Z,5.04
2022-11-24T21:44:13.080Z,5.10
2022-11-24T21:46:46.080Z,5.08
2022-11-24T21:49:17.484Z,5.08
2022-11-24T21:51:45.562Z,5.29
2022-11-24T21:54:13.394Z,5.32
2022-11-24T21:56:41.155Z,5.09
2022-11-24T21:59:09.313Z,5.10
2022-11-24T22:01:37.187Z,4.94
2022-11-24T22:04:05.533Z,4.45
2022-11-24T22:06:33.495Z,4.23
2022-11-24T22:09:01.498Z,5.00
2022-11-24T22:11:29.653Z,4.46
2022-11-24T22:13:57.633Z,4.74
2022-11-24T22:16:26.068Z,4.81
2022-11-24T22:18:54.354Z,5.03
2022-11-24T22:21:44.167Z,4.74
2022-11-24T22:24:12.435Z,4.84
2022-11-24T22:26:40.181Z,5.19
2022-11-24T22:29:08.545Z,5.40
2022-11-24T22:31:36.719Z,5.30
2022-11-24T22:34:05.013Z,5.03
2022-11-24T22:36:32.864Z,5.03
2022-11-24T22:39:05.866Z,4.99
2022-11-24T22:41:34.603Z,4.99
2022-11-24T22:44:03.257Z,4.97
2022-11-24T22:46:31.972Z,5.15
2022-11-24T22:49:00.743Z,5.25
2022-11-24T22:51:32.647Z,5.38
2022-11-24T22:54:02.504Z,5.29
2022-11-24T22:56:33.933Z,5.22
2022-11-24T22:59:02.476Z,4.98
2022-11-24T23:01:32.117Z,5.21
2022-11-24T23:04:00.250Z,5.01
2022-11-24T23:06:30.593Z,5.08
2022-11-24T23:09:00.056Z,5.54
2022-11-24T23:11:37.642Z,5.23
2022-11-24T23:14:08.444Z,5.06
2022-11-24T23:16:36.495Z,5.38
2022-11-24T23:19:04.534Z,5.21
2022-11-24T23:21:34.971Z,5.01
2022-11-24T23:24:04.008Z,4.94
2022-11-24T23:26:34.705Z,5.06
2022-11-24T23:29:03.218Z,4.99
2022-11-24T23:31:31.601Z,5.14
2022-11-24T23:34:01.555Z,5.48
2022-11-24T23:36:30.166Z,5.44
2022-11-24T23:39:05.643Z,5.02
2022-11-24T23:41:33.854Z,4.88
2022-11-24T23:44:01.680Z,5.26
2022-11-24T23:46:30.573Z,4.82
2022-11-24T23:48:59.042Z,4.80
2022-11-24T23:51:31.782Z,5.05
2022-11-24T23:54:00.375Z,5.34
2022-11-24T23:56:33.048Z,5.44
2022-11-24T23:59:02.834Z,5.36
